Terminal Aerodrome Forecast
Issued by NWS Riverton, WY

Home | Current Version | Previous Version | Text Only | Print | Product List | Glossary On
Versions: 1 2 3 4 5 6 7 8 9 10 11 12 13 14 15 16 17 18 19 20 21
000
FTUS45 KRIW 301720
TAFRIW
TAF
KRIW 301720Z 3018/0118 35008KT P6SM -RASN BKN015 OVC040
      TEMPO 3018/3019 BKN040
     FM301900 04009KT 6SM -RASN OVC018
     FM010200 09009KT P6SM VCSH OVC025
     FM010500 08006KT P6SM SCT005 BKN020
     FM011000 VRB04KT P6SM VCFG BKN010
     FM011500 VRB05KT P6SM BKN020=

USA.gov is the U.S. government's official web portal to all federal, state and local government web resources and services.